Airfield :
LOGIN :

Register | Disclaimer

   EN    FR    IT 

 










Legend :    VFR   Marginal VFR   IFR   Intensive IFR   Very Intensive IFR
Visi :
Ceiling :
>= 8 km
>= 3000ft
5 to 8 km
1000 to 3000 ft
1500m to 5 km
500 to 1000 ft
800 to 1500m
200 to 500 ft
< 800m
< 200 ft
Symbols :   Thunderstorms  Fog  Heavy snow  Heavy precipitations  Wind > 20 kt
SIGMETs :     Misc.  Thunderstorms  Icing  Turbulence  Mountain Waves  Volcanic Ashes







- Airport Elevation : 13 ft
- IATA code : LYX
- Download approach charts


EGMD - Lydd

CURRENT METAR :
  • 190320Z AUTO 20008KT 5000 BR OVC002/// 08/07 Q1018

EXPIRED METARs :
  • 190250Z AUTO 19009KT 4300 BR BKN002/// OVC010/// 08/07 Q1019
  • 190220Z AUTO 21009KT 9000 OVC011/// 08/07 Q1019
  • 190150Z AUTO 21008KT 9999 SCT006/// BKN009/// OVC014/// 08/07 Q1019
  • 190120Z AUTO 20007KT 9999 FEW003/// BKN006/// OVC010/// 08/07 Q1019
  • 190050Z AUTO 22010KT 7000 BKN003/// BKN006/// OVC018/// 08/07 Q1020

TAF TAF EGMD
Valid from the 19 at 03:00 until the 19 at 12:00 UTC


190238Z 1903/1912 21008KT 9999 BKN008
BECMG 1903/1906 2000 -DZ BR BKN002
BECMG 1910/1912 6000 -DZ BKN008
ATIS : +44 1797 322 422
No reported NOTAMs for that airfield.



MET'MAP, your aeronautical weather chart ! - Copyright ORBIFLY December 2007 - Disclaimer

ORBIFLY MET'MAP TEAM :

Programming & Development : Alexandra Zaïnal
Concept & Development : Baudouin d'Aumeries
Co-Development & Prog : Marc-Olivier Méhu
Technical & hardware support : Manuel Goepfert

Contact : metmap@orbifly.com




SOURCES & CREDITS :

   NOAA